createdAt,value
2022-12-15T00:02:16.983Z,2.20
2022-12-15T00:05:02.150Z,2.21
2022-12-15T00:07:48.720Z,2.23
2022-12-15T00:10:34.242Z,2.24
2022-12-15T00:13:19.395Z,2.28
2022-12-15T00:16:04.880Z,2.27
2022-12-15T00:18:49.998Z,2.28
2022-12-15T00:21:35.508Z,2.26
2022-12-15T00:24:22.160Z,2.29
2022-12-15T00:27:07.598Z,2.33
2022-12-15T00:29:53.082Z,2.30
2022-12-15T00:32:38.475Z,2.32
2022-12-15T00:35:24.362Z,2.32
2022-12-15T00:38:09.800Z,2.36
2022-12-15T00:40:37.691Z,2.40
2022-12-15T00:43:04.260Z,2.39
2022-12-15T00:45:49.521Z,2.42
2022-12-15T00:48:16.219Z,2.41
2022-12-15T00:50:53.509Z,2.39
2022-12-15T00:53:38.603Z,2.39
2022-12-15T00:56:26.043Z,2.38
2022-12-15T00:59:11.318Z,2.38
2022-12-15T01:01:56.696Z,2.42
2022-12-15T01:04:42.165Z,2.43
2022-12-15T01:07:27.463Z,2.43
2022-12-15T01:10:12.990Z,2.44
2022-12-15T01:12:59.571Z,2.45
2022-12-15T01:15:44.979Z,2.46
2022-12-15T01:18:30.689Z,2.45
2022-12-15T01:20:57.946Z,2.45
2022-12-15T01:23:24.798Z,2.47
2022-12-15T01:25:52.130Z,2.43
2022-12-15T01:28:20.855Z,1.93
2022-12-15T01:30:47.529Z,1.66
2022-12-15T01:33:14.508Z,1.98
2022-12-15T01:35:41.459Z,2.32
2022-12-15T01:38:09.009Z,2.38
2022-12-15T01:40:50.059Z,2.44
2022-12-15T01:43:18.774Z,2.48
2022-12-15T01:45:50.882Z,2.50
2022-12-15T01:48:23.150Z,2.49
2022-12-15T01:50:58.355Z,2.50
2022-12-15T01:53:25.935Z,2.54
2022-12-15T01:55:52.556Z,2.52
2022-12-15T01:58:22.154Z,2.52
2022-12-15T02:00:50.147Z,2.51
2022-12-15T02:03:17.580Z,2.51
2022-12-15T02:05:45.404Z,2.51
2022-12-15T02:08:12.088Z,2.53
2022-12-15T02:10:54.827Z,2.41
2022-12-15T02:13:29.082Z,2.29
2022-12-15T02:16:05.266Z,2.46
2022-12-15T02:18:38.187Z,2.48
2022-12-15T02:21:11.275Z,2.50
2022-12-15T02:24:13.186Z,1.99
2022-12-15T02:27:15.777Z,2.38
2022-12-15T02:30:09.027Z,2.47
2022-12-15T02:32:43.648Z,2.51
2022-12-15T02:35:15.017Z,2.52
2022-12-15T02:37:42.028Z,2.52
2022-12-15T02:40:11.584Z,2.53
2022-12-15T02:42:43.541Z,2.54
2022-12-15T02:45:14.342Z,2.54
2022-12-15T02:47:47.591Z,2.53
2022-12-15T02:50:31.945Z,2.54
2022-12-15T02:53:10.187Z,2.54
2022-12-15T02:55:46.628Z,2.22
2022-12-15T02:58:26.128Z,2.49
2022-12-15T03:01:01.508Z,2.53
2022-12-15T03:03:31.723Z,2.56
2022-12-15T03:06:00.937Z,2.55
2022-12-15T03:08:27.524Z,2.57
2022-12-15T03:10:55.328Z,2.54
2022-12-15T03:13:21.878Z,2.51
2022-12-15T03:15:48.420Z,2.36
2022-12-15T03:18:16.338Z,1.81
2022-12-15T03:20:42.890Z,2.44
2022-12-15T03:23:09.644Z,2.51
2022-12-15T03:25:36.207Z,2.56
2022-12-15T03:28:02.766Z,2.57
2022-12-15T03:30:29.381Z,2.56
2022-12-15T03:32:55.942Z,2.57
2022-12-15T03:35:23.883Z,2.57
2022-12-15T03:37:50.418Z,2.57
2022-12-15T03:40:17.100Z,1.62
2022-12-15T03:42:50.991Z,1.67
2022-12-15T03:45:18.846Z,1.39
2022-12-15T03:47:46.301Z,2.19
2022-12-15T03:50:15.205Z,2.41
2022-12-15T03:52:43.520Z,2.48
2022-12-15T03:55:11.651Z,2.28
2022-12-15T03:57:38.356Z,2.44
2022-12-15T04:00:06.304Z,2.52
2022-12-15T04:02:32.975Z,2.54
2022-12-15T04:04:59.655Z,2.52
2022-12-15T04:07:26.173Z,2.43
2022-12-15T04:09:54.068Z,2.54
2022-12-15T04:12:20.584Z,2.56
2022-12-15T04:14:47.122Z,2.57
2022-12-15T04:17:16.276Z,2.57
2022-12-15T04:20:01.525Z,2.58
2022-12-15T04:22:28.106Z,2.57
2022-12-15T04:25:14.596Z,2.57
2022-12-15T04:28:01.651Z,2.58
2022-12-15T04:30:48.900Z,2.59
2022-12-15T04:33:34.964Z,2.59
2022-12-15T04:36:20.955Z,2.58
2022-12-15T04:39:06.379Z,2.58
2022-12-15T04:41:53.131Z,2.58
2022-12-15T04:44:38.372Z,2.59
2022-12-15T04:47:23.650Z,2.58
2022-12-15T04:50:10.097Z,2.58
2022-12-15T04:52:55.387Z,2.60
2022-12-15T04:55:40.876Z,2.59
2022-12-15T04:58:27.950Z,2.59
2022-12-15T05:01:15.435Z,2.59
2022-12-15T05:04:01.243Z,2.60
2022-12-15T05:06:47.210Z,2.60
2022-12-15T05:09:32.586Z,2.62
2022-12-15T05:12:17.916Z,2.58
2022-12-15T05:15:04.597Z,1.90
2022-12-15T05:17:50.017Z,2.29
2022-12-15T05:20:35.194Z,2.51
2022-12-15T05:23:20.526Z,2.55
2022-12-15T05:26:05.882Z,2.55
2022-12-15T05:28:51.247Z,2.57
2022-12-15T05:31:38.099Z,2.58
2022-12-15T05:34:05.685Z,2.57
2022-12-15T05:36:32.680Z,2.58
2022-12-15T05:38:59.356Z,2.59
2022-12-15T05:41:25.910Z,2.57
2022-12-15T05:43:52.501Z,2.58
2022-12-15T05:46:20.411Z,2.58
2022-12-15T05:48:47.278Z,2.59
2022-12-15T05:51:14.567Z,2.60
2022-12-15T05:53:41.877Z,2.58
2022-12-15T05:56:10.328Z,2.58
2022-12-15T05:58:44.553Z,2.55
2022-12-15T06:01:13.697Z,2.59
2022-12-15T06:03:42.601Z,2.59
2022-12-15T06:06:11.489Z,2.59
2022-12-15T06:08:40.589Z,2.59
2022-12-15T06:11:08.210Z,2.60
2022-12-15T06:13:35.270Z,2.58
2022-12-15T06:16:04.078Z,2.61
2022-12-15T06:18:32.538Z,2.58
2022-12-15T06:21:02.298Z,2.57
2022-12-15T06:23:29.064Z,2.58
2022-12-15T06:25:56.587Z,2.58
2022-12-15T06:28:26.473Z,2.58
2022-12-15T06:30:54.068Z,2.60
2022-12-15T06:33:22.050Z,2.57
2022-12-15T06:35:49.263Z,2.61
2022-12-15T06:38:17.156Z,2.59
2022-12-15T06:40:43.772Z,1.59
2022-12-15T06:43:11.638Z,1.10
2022-12-15T06:45:38.186Z,1.42
2022-12-15T06:48:05.485Z,1.89
2022-12-15T06:50:32.033Z,2.35
2022-12-15T06:52:59.163Z,2.48
2022-12-15T06:55:27.130Z,2.52
2022-12-15T06:57:53.715Z,2.53
2022-12-15T07:00:20.287Z,2.57
2022-12-15T07:02:48.368Z,2.59
2022-12-15T07:05:16.936Z,2.58
2022-12-15T07:07:43.518Z,2.60
2022-12-15T07:10:11.001Z,2.61
2022-12-15T07:12:38.992Z,2.61
2022-12-15T07:15:08.038Z,2.58
2022-12-15T07:17:35.230Z,2.58
2022-12-15T07:20:01.820Z,2.60
2022-12-15T07:22:28.579Z,2.59
2022-12-15T07:24:55.142Z,2.20
2022-12-15T07:27:21.697Z,2.47
2022-12-15T07:29:49.614Z,1.44
2022-12-15T07:32:16.177Z,2.14
2022-12-15T07:34:42.761Z,1.99
2022-12-15T07:37:09.376Z,2.38
2022-12-15T07:39:36.243Z,2.46
2022-12-15T07:42:02.976Z,2.51
2022-12-15T07:44:29.607Z,2.52
2022-12-15T07:46:57.576Z,2.50
2022-12-15T07:49:24.243Z,2.47
2022-12-15T07:51:50.927Z,2.50
2022-12-15T07:54:17.505Z,2.48
2022-12-15T07:56:44.210Z,2.47
2022-12-15T07:59:17.127Z,2.46
2022-12-15T08:01:43.848Z,2.45
2022-12-15T08:04:12.109Z,2.46
2022-12-15T08:06:38.649Z,2.44
2022-12-15T08:09:05.177Z,2.19
2022-12-15T08:11:35.049Z,2.28
2022-12-15T08:14:03.437Z,2.43
2022-12-15T08:16:31.073Z,2.46
2022-12-15T08:18:57.690Z,2.31
2022-12-15T08:21:25.718Z,2.44
2022-12-15T08:23:52.336Z,2.30
2022-12-15T08:26:19.563Z,2.29
2022-12-15T08:28:46.843Z,1.85
2022-12-15T08:31:16.640Z,1.60
2022-12-15T08:33:44.656Z,1.49
2022-12-15T08:36:13.732Z,1.92
2022-12-15T08:38:43.082Z,2.18
2022-12-15T08:41:11.323Z,2.33
2022-12-15T08:43:43.992Z,2.37
2022-12-15T08:46:15.082Z,2.39
2022-12-15T08:48:41.683Z,2.38
2022-12-15T08:51:08.315Z,2.37
2022-12-15T08:53:35.013Z,2.21
2022-12-15T08:56:04.613Z,2.36
2022-12-15T08:58:31.236Z,2.21
2022-12-15T09:01:00.534Z,1.94
2022-12-15T09:03:27.392Z,1.68
2022-12-15T09:05:54.086Z,1.97
2022-12-15T09:08:20.647Z,2.19
2022-12-15T09:10:47.195Z,2.30
2022-12-15T09:13:20.497Z,2.35
2022-12-15T09:16:11.349Z,2.37
2022-12-15T09:18:38.262Z,2.37
2022-12-15T09:21:07.435Z,2.28
2022-12-15T09:23:36.201Z,2.35
2022-12-15T09:26:04.819Z,2.33
2022-12-15T09:28:33.163Z,2.33
2022-12-15T09:31:03.044Z,2.31
2022-12-15T09:33:30.141Z,2.37
2022-12-15T09:35:57.013Z,2.37
2022-12-15T09:38:23.576Z,2.30
2022-12-15T09:40:50.203Z,2.33
2022-12-15T09:43:46.249Z,2.36
2022-12-15T09:46:28.227Z,2.37
2022-12-15T09:48:58.806Z,2.37
2022-12-15T09:51:32.353Z,2.38
2022-12-15T09:53:59.391Z,2.42
2022-12-15T09:56:37.597Z,2.13
2022-12-15T09:59:14.555Z,2.36
2022-12-15T10:01:52.498Z,2.36
2022-12-15T10:04:30.619Z,2.34
2022-12-15T10:07:08.599Z,2.34
2022-12-15T10:09:37.303Z,2.39
2022-12-15T10:12:11.091Z,2.41
2022-12-15T10:14:41.827Z,2.39
2022-12-15T10:17:21.453Z,2.39
2022-12-15T10:19:55.130Z,2.35
2022-12-15T10:22:24.574Z,2.37
2022-12-15T10:28:13.655Z,2.42
2022-12-15T10:30:49.044Z,2.43
2022-12-15T10:33:21.466Z,2.37
2022-12-15T10:35:48.895Z,2.37
2022-12-15T10:38:24.527Z,2.33
2022-12-15T10:40:54.770Z,2.34
2022-12-15T10:43:35.527Z,2.36
2022-12-15T10:46:07.510Z,2.37
2022-12-15T10:48:36.807Z,2.40
2022-12-15T10:51:21.705Z,2.41
2022-12-15T10:53:51.424Z,2.42
2022-12-15T10:56:25.978Z,2.37
2022-12-15T10:58:57.818Z,2.36
2022-12-15T11:01:26.258Z,2.39
2022-12-15T11:03:55.235Z,2.41
2022-12-15T11:06:24.466Z,2.39
2022-12-15T11:08:53.335Z,2.38
2022-12-15T11:11:45.649Z,2.36
2022-12-15T11:14:15.163Z,2.41
2022-12-15T11:16:54.349Z,2.47
2022-12-15T11:19:39.811Z,2.17
2022-12-15T11:22:13.471Z,2.03
2022-12-15T11:24:45.307Z,2.12
2022-12-15T11:27:22.908Z,2.20
2022-12-15T11:29:59.082Z,2.34
2022-12-15T11:32:28.911Z,2.42
2022-12-15T11:34:56.859Z,2.43
2022-12-15T11:37:41.401Z,2.44
2022-12-15T11:40:32.985Z,2.49
2022-12-15T11:43:12.707Z,2.48
2022-12-15T11:45:42.545Z,2.48
2022-12-15T11:48:12.186Z,2.48
2022-12-15T11:50:51.084Z,2.49
2022-12-15T11:53:41.465Z,2.55
2022-12-15T11:56:14.626Z,2.47
2022-12-15T11:58:56.525Z,2.54
2022-12-15T12:01:47.356Z,2.52
2022-12-15T12:04:24.427Z,2.51
2022-12-15T12:07:07.503Z,2.53
2022-12-15T12:09:36.458Z,2.53
2022-12-15T12:12:13.205Z,2.53
2022-12-15T12:14:50.659Z,2.32
2022-12-15T12:17:27.206Z,1.81
2022-12-15T12:19:57.825Z,2.13
2022-12-15T12:22:30.140Z,2.37
2022-12-15T12:25:02.284Z,2.02
2022-12-15T12:27:37.523Z,2.27
2022-12-15T12:30:11.933Z,2.45
2022-12-15T12:32:47.425Z,2.49
2022-12-15T12:35:41.411Z,2.52
2022-12-15T12:38:11.888Z,2.54
2022-12-15T12:41:02.732Z,2.45
2022-12-15T12:43:34.567Z,2.52
2022-12-15T12:46:07.977Z,2.57
2022-12-15T12:48:38.497Z,2.59
2022-12-15T12:51:16.614Z,2.57
2022-12-15T12:53:44.635Z,2.59
2022-12-15T12:56:40.140Z,2.58
2022-12-15T12:59:36.933Z,2.59
2022-12-15T13:02:46.580Z,2.62
2022-12-15T13:05:24.295Z,2.60
2022-12-15T13:07:55.445Z,2.60
2022-12-15T13:10:24.798Z,2.61
2022-12-15T13:15:42.909Z,2.63
2022-12-15T13:18:16.058Z,2.62
2022-12-15T13:20:44.738Z,2.64
2022-12-15T13:23:36.422Z,2.62
2022-12-15T13:26:19.117Z,2.64
2022-12-15T13:28:50.674Z,2.64
2022-12-15T13:31:32.334Z,2.66
2022-12-15T13:34:12.164Z,2.66
2022-12-15T13:36:56.119Z,2.65
2022-12-15T13:39:48.120Z,2.64
2022-12-15T13:45:44.406Z,2.67
2022-12-15T13:48:27.280Z,2.67
2022-12-15T13:51:02.675Z,2.66
2022-12-15T13:53:38.168Z,2.66
2022-12-15T13:56:18.720Z,2.68
2022-12-15T13:58:57.165Z,2.68
2022-12-15T14:01:31.735Z,2.68
2022-12-15T14:04:03.828Z,2.68
2022-12-15T14:06:35.994Z,2.55
2022-12-15T14:09:03.575Z,2.68
2022-12-15T14:14:25.875Z,2.68
2022-12-15T14:16:58.470Z,2.69
2022-12-15T14:19:25.570Z,2.68
2022-12-15T14:21:54.009Z,2.67
2022-12-15T14:24:42.514Z,2.42
2022-12-15T14:27:09.128Z,2.14
2022-12-15T14:29:37.053Z,2.53
2022-12-15T14:32:04.631Z,2.61
2022-12-15T14:34:33.495Z,2.65
2022-12-15T14:37:03.377Z,2.69
2022-12-15T14:39:36.109Z,2.68
2022-12-15T14:42:04.321Z,2.68
2022-12-15T14:44:38.403Z,2.63
2022-12-15T14:47:16.503Z,2.67
2022-12-15T14:49:45.430Z,2.71
2022-12-15T14:52:25.796Z,2.71
2022-12-15T14:54:57.518Z,2.69
2022-12-15T14:57:26.531Z,1.52
2022-12-15T14:59:53.552Z,2.43
2022-12-15T15:02:24.891Z,2.56
2022-12-15T15:03:05.230Z,2.61
2022-12-15T15:03:16.532Z,2.65
2022-12-15T15:05:00.607Z,2.59
2022-12-15T15:07:28.793Z,2.56
2022-12-15T15:09:55.918Z,2.52
2022-12-15T15:12:24.735Z,2.64
2022-12-15T15:14:54.575Z,2.61
2022-12-15T15:17:30.744Z,2.62
2022-12-15T15:20:01.009Z,2.46
2022-12-15T15:22:35.030Z,2.50
2022-12-15T15:25:02.371Z,2.48
2022-12-15T15:27:35.486Z,1.95
2022-12-15T15:30:17.710Z,2.00
2022-12-15T15:32:56.152Z,2.05
2022-12-15T15:35:24.711Z,1.61
2022-12-15T15:37:52.242Z,1.73
2022-12-15T15:40:18.931Z,2.34
2022-12-15T15:42:45.610Z,1.34
2022-12-15T15:45:16.027Z,0.67
2022-12-15T15:47:47.155Z,1.74
2022-12-15T15:50:17.671Z,2.20
2022-12-15T15:52:44.604Z,2.31
2022-12-15T15:55:16.297Z,2.30
2022-12-15T15:57:42.821Z,2.40
2022-12-15T16:00:21.441Z,2.40
2022-12-15T16:02:48.326Z,2.40
2022-12-15T16:05:16.498Z,2.43
2022-12-15T16:07:46.522Z,2.44
2022-12-15T16:10:15.834Z,2.43
2022-12-15T16:12:45.361Z,2.32
2022-12-15T16:15:18.181Z,2.38
2022-12-15T16:17:45.179Z,2.39
2022-12-15T16:20:13.089Z,2.40
2022-12-15T16:22:41.971Z,2.38
2022-12-15T16:25:21.593Z,2.32
2022-12-15T16:27:48.395Z,2.39
2022-12-15T16:30:17.943Z,1.97
2022-12-15T16:32:44.527Z,2.30
2022-12-15T16:35:11.438Z,2.20
2022-12-15T16:37:39.780Z,0.88
2022-12-15T16:40:16.550Z,1.96
2022-12-15T16:42:44.969Z,2.20
2022-12-15T16:45:16.551Z,2.30
2022-12-15T16:47:43.666Z,2.33
2022-12-15T16:50:13.012Z,2.37
2022-12-15T16:52:40.817Z,1.83
2022-12-15T16:55:17.727Z,1.94
2022-12-15T16:57:44.436Z,2.20
2022-12-15T17:00:19.247Z,2.25
2022-12-15T17:02:46.140Z,2.30
2022-12-15T17:05:12.850Z,2.28
2022-12-15T17:07:39.462Z,2.26
2022-12-15T17:10:07.386Z,2.18
2022-12-15T17:12:35.602Z,2.28
2022-12-15T17:15:02.727Z,2.32
2022-12-15T17:17:31.046Z,2.32
2022-12-15T17:20:28.200Z,2.35
2022-12-15T17:22:47.632Z,2.34
2022-12-15T17:25:31.899Z,2.36
2022-12-15T17:28:13.860Z,2.36
2022-12-15T17:30:40.593Z,2.37
2022-12-15T17:33:17.294Z,2.36
2022-12-15T17:35:44.048Z,2.37
2022-12-15T17:38:14.869Z,2.38
2022-12-15T17:40:41.434Z,2.38
2022-12-15T17:43:13.460Z,2.38
2022-12-15T17:45:40.024Z,2.39
2022-12-15T17:48:07.102Z,2.39
2022-12-15T17:50:33.746Z,2.39
2022-12-15T17:53:01.485Z,2.44
2022-12-15T17:55:34.740Z,2.42
2022-12-15T17:58:05.725Z,2.40
2022-12-15T18:00:33.660Z,2.41
2022-12-15T18:03:01.007Z,2.41
2022-12-15T18:05:30.005Z,2.41
2022-12-15T18:07:58.541Z,2.42
2022-12-15T18:10:29.181Z,2.43
2022-12-15T18:12:56.168Z,2.43
2022-12-15T18:15:24.768Z,2.43
2022-12-15T18:17:52.872Z,2.45
2022-12-15T18:20:19.885Z,2.30
2022-12-15T18:22:47.707Z,2.41
2022-12-15T18:25:16.933Z,2.43
2022-12-15T18:27:43.685Z,2.37
2022-12-15T18:30:15.684Z,2.45
2022-12-15T18:32:43.056Z,2.45
2022-12-15T18:35:20.278Z,2.45
2022-12-15T18:37:47.305Z,2.46
2022-12-15T18:40:15.868Z,2.46
2022-12-15T18:42:43.656Z,2.47
2022-12-15T18:45:21.960Z,2.48
2022-12-15T18:47:49.986Z,2.49
2022-12-15T18:50:20.942Z,2.48
2022-12-15T18:52:48.661Z,2.50
2022-12-15T18:55:19.400Z,2.49
2022-12-15T18:57:46.784Z,2.49
2022-12-15T19:00:24.645Z,2.45
2022-12-15T19:02:53.706Z,2.49
2022-12-15T19:05:32.490Z,2.50
2022-12-15T19:08:08.324Z,2.52
2022-12-15T19:10:36.276Z,2.51
2022-12-15T19:13:03.613Z,2.52
2022-12-15T19:15:30.468Z,2.50
2022-12-15T19:18:15.769Z,2.44
2022-12-15T19:21:02.585Z,2.52
2022-12-15T19:23:29.287Z,2.51
2022-12-15T19:25:56.193Z,2.54
2022-12-15T19:28:23.991Z,2.57
2022-12-15T19:30:52.091Z,2.54
2022-12-15T19:33:19.713Z,2.55
2022-12-15T19:35:50.977Z,2.54
2022-12-15T19:38:22.524Z,2.54
2022-12-15T19:40:49.401Z,2.56
2022-12-15T19:43:17.286Z,2.54
2022-12-15T19:45:44.167Z,2.55
2022-12-15T19:48:12.504Z,2.55
2022-12-15T19:50:41.073Z,2.57
2022-12-15T19:53:15.497Z,2.55
2022-12-15T19:55:42.162Z,2.57
2022-12-15T19:58:27.091Z,2.56
2022-12-15T20:00:55.900Z,2.55
2022-12-15T20:03:22.642Z,2.57
2022-12-15T20:05:51.477Z,2.58
2022-12-15T20:08:23.266Z,2.60
2022-12-15T20:10:50.553Z,2.57
2022-12-15T20:13:17.516Z,2.57
2022-12-15T20:15:44.227Z,2.56
2022-12-15T20:18:11.614Z,2.57
2022-12-15T20:20:39.173Z,2.57
2022-12-15T20:23:10.940Z,2.55
2022-12-15T20:25:40.706Z,2.58
2022-12-15T20:28:10.204Z,2.57
2022-12-15T20:30:37.065Z,2.58
2022-12-15T20:33:05.100Z,2.55
2022-12-15T20:35:34.597Z,2.58
2022-12-15T20:38:05.352Z,2.58
2022-12-15T20:40:32.094Z,2.59
2022-12-15T20:43:00.002Z,2.58
2022-12-15T20:45:27.075Z,2.60
2022-12-15T20:47:55.800Z,2.41
2022-12-15T20:50:28.126Z,2.55
2022-12-15T20:52:54.956Z,2.56
2022-12-15T20:55:21.798Z,2.58
2022-12-15T20:57:48.780Z,2.57
2022-12-15T21:00:20.617Z,2.59
2022-12-15T21:02:48.747Z,2.58
2022-12-15T21:05:17.736Z,2.57
2022-12-15T21:07:44.844Z,2.61
2022-12-15T21:10:12.878Z,2.61
2022-12-15T21:12:40.680Z,2.59
2022-12-15T21:15:16.516Z,2.57
2022-12-15T21:17:43.861Z,2.58
2022-12-15T21:20:11.770Z,2.48
2022-12-15T21:22:38.588Z,2.11
2022-12-15T21:25:16.102Z,2.43
2022-12-15T21:27:42.659Z,2.56
2022-12-15T21:30:17.150Z,2.61
2022-12-15T21:32:43.797Z,2.64
2022-12-15T21:35:13.870Z,2.66
2022-12-15T21:37:42.073Z,2.71
2022-12-15T21:40:16.177Z,2.69
2022-12-15T21:42:42.901Z,2.73
2022-12-15T21:45:15.645Z,2.75
2022-12-15T21:48:01.071Z,2.76
2022-12-15T21:50:28.108Z,2.77
2022-12-15T21:52:55.158Z,2.81
2022-12-15T21:55:24.210Z,2.82
2022-12-15T21:57:51.698Z,2.83
2022-12-15T22:00:21.803Z,2.85
2022-12-15T22:02:49.958Z,2.85
2022-12-15T22:05:19.209Z,2.87
2022-12-15T22:07:45.809Z,2.84
2022-12-15T22:10:12.834Z,2.93
2022-12-15T22:12:40.498Z,2.92
2022-12-15T22:15:13.796Z,2.94
2022-12-15T22:17:42.438Z,2.93
2022-12-15T22:20:14.783Z,2.95
2022-12-15T22:22:41.910Z,2.67
2022-12-15T22:25:15.983Z,2.53
2022-12-15T22:27:43.695Z,2.94
2022-12-15T22:30:14.774Z,2.93
2022-12-15T22:32:42.741Z,2.98
2022-12-15T22:35:13.735Z,3.02
2022-12-15T22:37:40.282Z,3.03
2022-12-15T22:40:08.007Z,3.04
2022-12-15T22:42:35.116Z,3.03
2022-12-15T22:45:02.313Z,3.04
2022-12-15T22:47:28.885Z,3.07
2022-12-15T22:49:56.852Z,2.83
2022-12-15T22:52:23.408Z,2.35
2022-12-15T22:54:50.259Z,2.94
2022-12-15T22:57:21.398Z,3.06
2022-12-15T23:00:00.237Z,3.10
2022-12-15T23:02:28.032Z,3.08
2022-12-15T23:04:55.256Z,3.11
2022-12-15T23:07:23.327Z,3.15
2022-12-15T23:10:09.856Z,3.17
2022-12-15T23:12:36.449Z,3.17
2022-12-15T23:15:21.967Z,3.16
2022-12-15T23:17:48.525Z,3.22
2022-12-15T23:20:15.421Z,3.20
2022-12-15T23:22:43.324Z,3.18
2022-12-15T23:25:10.189Z,3.16
2022-12-15T23:27:36.769Z,3.14
2022-12-15T23:30:03.973Z,3.19
2022-12-15T23:32:30.530Z,3.19
2022-12-15T23:34:57.186Z,3.19
2022-12-15T23:37:23.750Z,3.19
2022-12-15T23:39:51.607Z,3.21
2022-12-15T23:42:18.322Z,3.24
2022-12-15T23:44:44.893Z,3.24
2022-12-15T23:47:11.516Z,3.24
2022-12-15T23:49:38.115Z,3.22
2022-12-15T23:52:04.954Z,3.23
2022-12-15T23:54:31.617Z,3.23
2022-12-15T23:56:59.575Z,3.25
2022-12-15T23:59:26.110Z,3.25
